Latest Coastal Weather Observations for Cape Grim

IDV60701

Issued at 5:05 am EST Wednesday 3 September 2014 (issued every 10 minutes, with the page automatically refreshed every 10 minutes)

About coastal observations | Map of coastal stations | Coastal observations for VIC | Marine services | Other Formats
Station Details ID: 091331 Name: CAPE GRIM Lat: -40.68 Lon: 144.69 Height: 86.0 m
Data from the previous 72 hours. | See also: Recent months at Cape Grim
Date/Time
EST
Temp

°C
Wind Pressure Rain
since 9am
mm
Weather Cloud Vis
km
Sea
Height
m
Swell
Dir
 
Speed
knots
Gust
knots
hPa Trend Height
m
Period
s
Dir
03/05:00am 9.2 SSW 12 16 1021.8 - 0.0 - Partly cloudy - - - - -
03/04:30am 8.8 SSW 11 15 1021.8 - 0.0 - - - - - - -
03/04:00am 8.6 SSW 12 17 1021.9 - 0.0 - Partly cloudy - - - - -
03/03:30am 8.8 S 10 13 1022.0 - 0.0 - Partly cloudy - - - - -
03/03:00am 9.4 S 11 14 1022.1 - 0.0 - Mostly cloudy - - - - -
03/02:30am 8.7 S 12 16 1022.2 - 0.0 - - - - - - -
03/02:00am 8.2 S 10 12 1022.5 - 0.0 - - - - - - -
03/01:30am 8.0 S 10 14 1022.8 - 0.0 - Partly cloudy - - - - -
03/01:00am 9.9 SW 17 23 1022.7 - 0.0 - Partly cloudy - - - - -
03/12:30am 8.7 S 11 15 1022.7 - 0.0 - Partly cloudy - - - - -
03/12:00am 8.5 S 12 17 1022.8 - 0.0 - Mostly clear - - - - -
 
Date/Time
EST
Temp

°C
Wind Pressure Rain
since 9am
mm
Weather Cloud Vis
km
Sea
Height
m
Swell
Dir
 
Speed
knots
Gust
knots
hPa Trend Height
m
Period
s
Dir
02/11:30pm 8.8 S 11 17 1022.7 - 0.0 - Partly cloudy - - - - -
02/11:00pm 9.0 S 14 17 1022.8 - 0.0 - - - - - - -
02/10:30pm 8.6 S 11 15 1022.8 - 0.0 - Partly cloudy - - - - -
02/10:00pm 9.1 S 12 17 1022.8 - 0.0 - Partly cloudy - - - - -
02/09:30pm 8.7 SSW 10 13 1022.7 - 0.0 - Partly cloudy - - - - -
02/09:00pm 8.0 S 9 11 1022.7 - 0.0 - Partly cloudy - - - - -
02/08:30pm 8.3 SSE 11 14 1022.6 - 0.0 - Partly cloudy - - - - -
02/08:00pm 8.3 S 12 15 1022.4 - 0.0 - Cloudy - - - - -
02/07:30pm 8.1 S 11 16 1022.3 - 0.0 - Partly cloudy - - - - -
02/07:00pm 8.0 S 13 18 1022.0 - 0.0 - Partly cloudy - - - - -
02/06:30pm 9.4 S 16 21 1021.6 - 0.0 - Partly cloudy - - - - -
02/06:00pm 9.0 S 17 23 1021.3 - 0.0 - Partly cloudy - - - - -
02/05:30pm 8.7 SSW 22 31 1020.9 - 0.0 - Partly cloudy - - - - -
02/05:27pm 9.2 SSW 20 31 1020.7 - 0.0 - Partly cloudy - - - - -
02/05:00pm 10.1 SSW 18 26 1020.5 - 0.0 - Partly cloudy - - - - -
02/04:30pm 10.3 SSW 20 27 1020.1 - 0.0 - Partly cloudy - - - - -
02/04:00pm 10.6 SSW 18 28 1019.9 - 0.0 - Partly cloudy - - - - -
02/03:30pm 11.2 SW 21 29 1019.7 - 0.0 - Partly cloudy - - - - -
02/03:00pm 10.8 SW 20 27 1019.7 - 0.0 - Mostly cloudy - - - - -
02/02:48pm 11.2 SW 19 29 1019.6 - 0.0 - Partly cloudy - - - - -
02/02:30pm 11.3 SSW 19 25 1019.3 - 0.0 - Partly cloudy - - - - -
02/02:00pm 11.4 SSW 19 25 1019.0 - 0.0 - Partly cloudy - - - - -
02/01:30pm 11.3 SSW 20 27 1019.0 - 0.0 - - - - - - -
02/01:00pm 11.4 SSW 19 24 1019.1 - 0.0 - - - - - - -
02/12:30pm 10.9 SSW 21 29 1019.2 - 0.0 - - - - - - -
02/12:00pm 11.1 SSW 21 26 1019.1 - 0.0 - - - - - - -
02/11:30am 11.0 SSW 20 27 1019.0 - 0.0 - - - - - - -
02/11:00am 10.9 SSW 20 27 1019.0 - 0.0 - - - - - - -
02/10:45am 11.1 SSW 18 28 1019.1 - 0.0 - - - - - - -
02/10:30am 10.9 SSW 20 26 1019.1 - 0.0 - - - - - - -
02/10:00am 10.5 S 17 24 1018.8 - 0.0 - - - - - - -
02/09:30am 10.2 S 16 23 1018.6 - 0.0 - - - - - - -
02/09:00am 9.7 S 16 24 1018.4 - 1.8 - - - - - - -
02/08:30am 9.1 S 17 25 1018.0 - 1.8 - - - - - - -
02/08:00am 8.4 S 16 23 1017.8 - 1.8 - - - - - - -
02/07:30am 8.0 S 14 18 1017.4 - 1.8 - - - - - - -
02/07:00am 7.9 S 14 19 1016.9 - 1.8 - - - - - - -
02/06:30am 7.8 S 16 21 1016.3 - 1.8 - - - - - - -
02/06:00am 7.8 SSE 16 20 1016.0 - 1.8 - - - - - - -
02/05:30am 7.7 S 16 21 1015.4 - 1.8 - - - - - - -
02/05:00am 8.1 S 17 24 1014.9 - 1.8 - - - - - - -
02/04:30am 8.4 S 18 25 1014.3 - 1.8 - - - - - - -
02/04:00am 8.5 S 16 23 1013.9 - 1.8 - - - - - - -
02/03:30am 8.6 S 15 22 1013.7 - 1.8 - - - - - - -
02/03:00am 8.7 S 15 20 1013.4 - 1.8 - - - - - - -
02/02:30am 8.8 S 15 21 1013.2 - 1.8 - - - - - - -
02/02:00am 9.3 S 16 21 1012.9 - 1.8 - - - - - - -
02/01:30am 9.3 S 15 21 1012.6 - 1.8 - - - - - - -
02/01:00am 9.4 S 14 19 1012.4 - 1.8 - - - - - - -
02/12:30am 9.6 S 13 18 1012.3 - 1.8 - Partly cloudy - - - - -
02/12:00am 9.3 S 16 20 1012.2 - 1.8 - Partly cloudy - - - - -
 
Date/Time
EST
Temp

°C
Wind Pressure Rain
since 9am
mm
Weather Cloud Vis
km
Sea
Height
m
Swell
Dir
 
Speed
knots
Gust
knots
hPa Trend Height
m
Period
s
Dir
01/11:30pm 9.7 SW 19 26 1011.9 - 1.8 - Partly cloudy - - - - -
01/11:00pm 10.5 SW 19 23 1011.7 - 1.8 - Partly cloudy - - - - -
01/10:30pm 10.8 SW 19 25 1011.3 - 1.8 - Partly cloudy - - - - -
01/10:00pm 10.3 SSW 13 19 1011.1 - 1.8 - Partly cloudy - - - - -
01/09:30pm 10.0 SSW 13 18 1010.8 - 1.8 - Partly cloudy - - - - -
01/09:00pm 9.8 S 12 16 1010.6 - 1.8 - Partly cloudy - - - - -
01/08:30pm 9.9 S 13 18 1010.6 - 1.8 - - - - - - -
01/08:00pm 10.4 S 15 20 1010.3 - 1.8 - Partly cloudy - - - - -
01/07:30pm 10.6 SSW 16 21 1009.6 - 1.8 - Partly cloudy - - - - -
01/07:00pm 10.6 SSW 17 25 1008.9 - 1.8 - Partly cloudy - - - - -
01/06:30pm 10.6 SSW 16 22 1008.6 - 1.8 - - - - - - -
01/06:00pm 10.4 SSW 17 24 1008.1 - 1.8 - Mostly clear - - - - -
01/05:30pm 10.6 SSW 19 26 1007.5 - 1.8 - Partly cloudy - - - - -
01/05:00pm 11.2 SW 21 27 1007.1 - 1.8 - Partly cloudy - - - - -
01/04:30pm 11.3 SW 20 26 1006.8 - 1.8 - Partly cloudy - - - - -
01/04:00pm 11.5 SSW 17 24 1006.5 - 1.8 - Partly cloudy - - - - -
01/03:30pm 11.7 SW 23 29 1006.1 - 1.8 - Partly cloudy - - - - -
01/03:00pm 11.8 SW 21 27 1006.1 - 1.8 - Partly cloudy - - - - -
01/02:30pm 11.9 SW 21 27 1005.7 - 1.8 - Partly cloudy - - - - -
01/02:00pm 11.9 SW 18 25 1005.4 - 1.8 - Partly cloudy - - - - -
01/01:30pm 11.7 SW 19 27 1005.1 - 1.8 - Partly cloudy - - - - -
01/01:00pm 11.7 SW 21 27 1005.2 - 1.8 - Partly cloudy - - - - -
01/12:30pm 11.5 SW 21 27 1005.3 - 1.8 - Partly cloudy - - - - -
01/12:05pm 11.3 SSW 19 27 1005.2 - 1.8 - Partly cloudy - - - - -
01/12:00pm 11.3 SSW 19 27 1005.3 - 1.8 Recent precip. Cloudy - - - - -
01/11:44am 10.8 SSW 19 29 1004.9 - 1.8 - Partly cloudy - - - - -
01/11:30am 10.7 SSW 18 25 1005.0 - 1.8 - Partly cloudy - - - - -
01/11:08am 11.3 SSW 14 20 1004.9 - 0.8 - Partly cloudy - - - - -
01/11:04am 11.7 SSW 12 19 1004.8 - 0.8 - Partly cloudy - - - - -
01/11:00am 11.8 SSW 11 19 1004.8 - 0.8 - Partly cloudy - - - - -
01/10:30am 12.0 SW 13 16 1004.6 - 0.8 - Partly cloudy - - - - -
01/10:26am 12.0 SW 13 16 1004.5 - 0.8 - Partly cloudy - - - - -
01/10:00am 12.1 W 12 16 1004.7 - 0.6 - Partly cloudy - - - - -
01/09:30am 11.8 WNW 15 19 1004.5 - 0.0 - Partly cloudy - - - - -
01/09:00am 11.4 WNW 13 17 1004.4 - 1.0 - Partly cloudy - - - - -
01/08:40am 11.9 W 15 20 1004.4 - 1.0 - Partly cloudy - - - - -
01/08:30am 12.8 NW 21 26 1004.3 - 1.0 - Partly cloudy - - - - -
01/08:00am 13.0 NW 18 30 1004.2 - 1.0 - Partly cloudy - - - - -
01/07:56am 13.0 NW 19 30 1004.2 - 1.0 - Partly cloudy - - - - -
01/07:30am 13.1 NNW 22 26 1004.0 - 1.0 - Partly cloudy - - - - -
01/07:07am 13.4 NNW 20 31 1004.0 - 1.0 - Partly cloudy - - - - -
01/07:00am 13.2 N 16 23 1004.1 - 1.0 - Partly cloudy - - - - -
01/06:30am 12.9 N 13 17 1004.0 - 1.0 - Partly cloudy - - - - -
01/06:00am 12.6 NNW 8 9 1004.8 - 1.0 Rain Cloudy - - - - -
01/05:30am 12.5 NNE 4 5 1004.7 - 0.4 - Partly cloudy - - - - -
01/05:00am 12.8 NNW 5 8 1005.1 - 0.2 - Partly cloudy - - - - -
01/04:30am 12.9 NW 3 4 1005.1 - 0.0 - Partly cloudy - - - - -
01/04:00am 13.3 NW 4 6 1005.4 - 0.0 - Partly cloudy - - - - -
01/03:30am 13.3 WNW 8 12 1005.9 - 0.0 - Partly cloudy - - - - -
01/03:00am 13.4 N 7 8 1005.8 - 0.0 - Cloudy - - - - -
01/02:30am 13.5 NNW 10 14 1006.8 - 0.0 - Cloudy - - - - -
01/02:00am 13.7 NNW 13 18 1007.0 - 0.0 - Cloudy - - - - -
01/01:30am 13.9 NNW 15 23 1007.0 - 0.0 - Partly cloudy - - - - -
01/01:00am 14.0 NNW 18 23 1007.4 - 0.0 - Cloudy - - - - -
01/12:30am 14.4 N 21 25 1007.0 - 0.0 - Cloudy - - - - -
01/12:00am 15.1 N 24 31 1007.0 - 0.0 - Cloudy - - - - -
 
Date/Time
EST
Temp

°C
Wind Pressure Rain
since 9am
mm
Weather Cloud Vis
km
Sea
Height
m
Swell
Dir
 
Speed
knots
Gust
knots
hPa Trend Height
m
Period
s
Dir
31/11:30pm 15.1 N 23 30 1007.4 - 0.0 - Cloudy - - - - -
31/11:18pm 15.2 N 23 33 1007.5 - 0.0 - Cloudy - - - - -
31/11:00pm 14.8 N 22 27 1007.8 - 0.0 - Cloudy - - - - -
31/10:30pm 14.9 N 25 32 1008.2 - 0.0 - Cloudy - - - - -
31/10:00pm 14.7 N 23 27 1008.2 - 0.0 - Cloudy - - - - -
31/09:30pm 14.7 N 19 24 1009.1 - 0.0 - Partly cloudy - - - - -
31/09:00pm 14.7 NNW 18 24 1009.8 - 0.0 - Cloudy - - - - -
31/08:30pm 15.3 N 19 25 1009.7 - 0.0 - Cloudy - - - - -
31/08:23pm 15.2 NNE 15 25 1009.7 - 0.0 - Cloudy - - - - -
31/08:00pm 15.0 NNE 14 20 1010.0 - 0.0 - Cloudy - - - - -
31/07:30pm 12.7 E 14 15 1010.2 - 0.0 - - - - - - -
31/07:00pm 12.8 E 16 20 1010.3 - 0.0 - - - - - - -
31/06:30pm 12.6 ENE 14 17 1010.6 - 0.0 - - - - - - -
31/06:00pm 12.7 ENE 15 19 1010.4 - 0.0 - Cloudy - - - - -
31/05:49pm 13.1 ENE 15 25 1010.6 - 0.0 - - - - - - -
31/05:30pm 12.8 ENE 14 18 1010.7 - 0.0 - - - - - - -
31/05:00pm 13.0 ENE 15 19 1010.9 - 0.0 - - - - - - -
31/04:30pm 13.3 ENE 15 18 1010.8 - 0.0 - - - - - - -
31/04:00pm 13.8 ENE 18 21 1010.9 - 0.0 - - - - - - -
31/03:30pm 14.0 ENE 17 21 1011.3 - 0.0 - - - - - - -
31/03:00pm 13.8 ENE 16 18 1011.9 - 0.0 - Mostly clear - - - - -
31/02:30pm 14.4 NE 17 20 1012.2 - 0.0 - - - - - - -
31/02:00pm 14.5 NE 17 21 1012.7 - 0.0 - - - - - - -
31/01:30pm 14.4 ENE 17 20 1013.1 - 0.0 - - - - - - -
31/01:00pm 14.7 NE 16 20 1013.6 - 0.0 - - - - - - -
31/12:30pm 14.4 NE 16 19 1014.1 - 0.0 - - - - - - -
31/12:00pm 14.0 ENE 16 19 1014.6 - 0.0 - Partly cloudy - - - - -
31/11:30am 13.6 NE 14 16 1015.3 - 0.0 - Partly cloudy - - - - -
31/11:00am 14.2 NE 18 21 1015.4 - 0.0 - - - - - - -
31/10:30am 14.1 ENE 20 23 1015.4 - 0.0 - Partly cloudy - - - - -
31/10:00am 13.8 ENE 19 24 1015.9 - 0.0 - Partly cloudy - - - - -
31/09:30am 13.5 ENE 18 21 1016.3 - 0.0 - Partly cloudy - - - - -
31/09:00am 13.2 ENE 19 23 1016.3 - 0.2 - Mostly clear - - - - -
31/08:30am 13.0 ENE 17 21 1016.6 - 0.2 - - - - - - -
31/08:00am 12.4 ENE 17 20 1016.9 - 0.2 - - - - - - -
31/07:30am 11.8 ENE 16 19 1016.9 - 0.2 - Partly cloudy - - - - -
31/07:00am 11.6 ENE 17 19 1016.8 - 0.2 - Partly cloudy - - - - -
31/06:58am 11.5 ENE 17 20 1016.8 - 0.2 - Partly cloudy - - - - -
31/06:30am 11.5 ENE 16 19 1016.9 - 0.2 - Partly cloudy - - - - -
31/06:00am 11.4 ENE 15 17 1017.2 - 0.2 Recent precip. Cloudy - - - - -
31/05:30am 11.3 ENE 15 17 1017.1 - 0.2 - Partly cloudy - - - - -

Other Formats:

Comma delimited format used in spreadsheet applications
http://www.bom.gov.au/fwo/IDV60701/IDV60701.95954.axf

JavaScript Object Notation format (JSON) in row-major order
http://www.bom.gov.au/fwo/IDV60701/IDV60701.95954.json